Sutton, AK (99674)

6:16 PM AKDT on September 27, 2016 (GMT -0800)
Sutton/Kings River | | Change Station

Elev 600 ft 61.74 °N, 148.77 °W | Updated 1 second ago

Clear
Clear
49.4 °F
Feels Like 49 °F
N
2.0
Wind Variable Wind from NNW
Gusts 5.0 mph

Today
High -- | Low -- °F
--% Chance of Precip.
Yesterday
High -- | Low -- °F
Precip. -- in
Pressure 30.20 in
Visibility 10.0 miles
Clouds Clear
Windchill 49 °F
Dew Point 40 °F
Humidity 70%
Rainfall in
Snow Depth Not available.
7:53 AM 7:37 PM
Waning Crescent, 8% visible
METAR PAAQ 280153Z AUTO 16005KT 10SM CLR 11/03 A3019 RMK AO2 SLP225 T01060033 TSNO
Pressure 30.20 in
Visibility 10.0 miles
Clouds Clear
Windchill 49 °F
Dew Point 40 °F
Humidity 70%
Rainfall in
Snow Depth Not available.
7:53 AM 7:37 PM
Waning Crescent, 8% visible
METAR PAAQ 280153Z AUTO 16005KT 10SM CLR 11/03 A3019 RMK AO2 SLP225 T01060033 TSNO

10-Day Weather Forecast

Almanac

Astronomy

Sep. 27, 2016 Rise Set
Actual Time
Civil Twilight
Nautical Twilight
Astronomical Twilight
Moon
Length of Visible Light
Length of Day
Tomorrow will be .
, % of the Moon is Illuminated

Today's Extremes

State Highs State Lows

Community

WunderPhotos

Upload Photos

1,942,185 photos uploaded!

WunderBlog® & News

Nearby

Air Quality

  Air Quality AQ Index Pollutant
Not available.

Snow Depth

Station Depth Elevation

Earthquake Activity

City Distance Mag. Time & Date
Minimum magnitude displayed is 2.5.

Coastal Water Temperatures

Place Temperature

Stations

Nearby Weather Stations

Station Location Temp. Windchill Dew Point Humidity Wind Precip. Elev Updated Type
                   

Watches & Warnings

There are currently no watches in effect.